Woodville, AL (35776)

10:43 AM CDT on August 29, 2015 (GMT -0500)
Keel Mountain | | Change Station
CLOSE
Current Station
Personal Weather Station
Location: Gurley, AL
Elevation: 1572 ft
Nearby Weather Stations

Elev 1572 ft 34.68 °N, 86.38 °W | Updated 5 minutes ago

Overcast
Overcast
78.3 °F
Feels Like 79 °F
N
2.0
Wind Variable Wind from SSW
Gusts 4.9 mph

Today
High -- | Low -- °F
--% Chance of Precip.
Yesterday
High -- | Low -- °F
Precip. -- in
6:15 AM 7:15 PM
Full, 100% visible
Pressure 30.19 in
Visibility 10.0 miles
Clouds Scattered Clouds 2500 ft
Mostly Cloudy 7000 ft
Heat Index 79 °F
Dew Point 58 °F
Humidity 49%
Rainfall Not available.
Snow Depth Not available.
UV 4 out of 12
Pollen 9.20 out of 12
Air Quality Not available.
Flu Activity Not available.
METAR K4A6 291535Z AUTO 20007KT 10SM SCT025 BKN070 27/21 A3019 RMK AO2
Pressure 30.19 in
Visibility 10.0 miles
Clouds Scattered Clouds 2500 ft
Mostly Cloudy 7000 ft
Heat Index 79 °F
Dew Point 58 °F
Humidity 49%
Rainfall Not available.
Snow Depth Not available.
UV 4 out of 12
Pollen 9.20 out of 12
Air Quality Not available.
Flu Activity Not available.
METAR K4A6 291535Z AUTO 20007KT 10SM SCT025 BKN070 27/21 A3019 RMK AO2

10-Day Weather Forecast

×

Almanac

Astronomy

Aug. 29, 2015 Rise Set
Actual Time
Civil Twilight
Nautical Twilight
Astronomical Twilight
Moon
Length of Visible Light
Length of Day
Tomorrow will be .
, % of the Moon is Illuminated

Today's Extremes

State Highs State Lows

Community

WunderPhotos

Upload Photos

1,850,700 photos uploaded!

WunderBlogs® & News

Nearby

Air Quality

  Air Quality AQ Index Pollutant
Not available.

Snow Depth

Station Depth Elevation

Earthquake Activity

City Distance Mag. Time & Date
Minimum magnitude displayed is 2.5.

Coastal Water Temperatures

Place Temperature

Stations

Nearby Weather Stations

Station Location Temp. Windchill Dew Point Humidity Wind Precip. Elev Updated Type